This is the latest recevied weather packets stored in our database for station/object BMCB-13. If no packets are shown the sender has not sent any weather packets the latest 10 day(s).
| Time | Temp. | Humidity | Pressure | Rain* | Wind** | Luminosity | Snow |
|---|---|---|---|---|---|---|---|
| 1777455047 | 14.44° C | 41% | 1023.2 hPa | 0 mm | - | 716 W/m² | - |
| 1777454446 | 14.44° C | 41% | 1023.2 hPa | 0 mm | - | 698 W/m² | - |
| 1777452648 | 13.89° C | 41% | 1023.3 hPa | 0 mm | - | 636 W/m² | - |
| 1777445447 | 10° C | 53% | 1022.9 hPa | 0 mm | - | 312 W/m² | - |
| 1777444846 | 10° C | 54% | 1022.9 hPa | 0 mm | - | 282 W/m² | - |
| 1777434046 | 7.78° C | 55% | 1022.2 hPa | 0 mm | - | 0 W/m² | - |
| 1777433445 | 8.33° C | 54% | 1022.1 hPa | 0 mm | - | 0 W/m² | - |
| 1777421442 | 10.56° C | 51% | 1021.5 hPa | 0 mm | - | 0 W/m² | - |
| 1777419044 | 11.11° C | 51% | 1021.4 hPa | 0 mm | - | 0 W/m² | - |
| 1777414246 | 12.22° C | 50% | 1020.9 hPa | 0 mm | - | 0 W/m² | - |
| 1777413048 | 12.78° C | 49% | 1020.9 hPa | 0 mm | - | 0 W/m² | - |
| 1777406450 | 14.44° C | 45% | 1019.9 hPa | 0 mm | - | 0 W/m² | - |
| 1777401647 | 16.11° C | 43% | 1018.9 hPa | 0 mm | - | 12 W/m² | - |
| 1777395645 | 18.33° C | 39% | 1017.9 hPa | 0 mm | - | 182 W/m² | - |
| 1777391444 | 18.89° C | 41% | 1017.7 hPa | 0 mm | - | 378 W/m² | - |
| 1777380642 | 18.89° C | 42% | 1018.6 hPa | 0 mm | - | 766 W/m² | - |
| 1777377645 | 17.78° C | 46% | 1018.9 hPa | 0 mm | - | 802 W/m² | - |
| 1777368045 | 14.44° C | 61% | 1019.5 hPa | 0 mm | - | 632 W/m² | - |
| 1777366844 | 13.33° C | 63% | 1019.5 hPa | 0 mm | - | 672 W/m² | - |
| 1777366246 | 13.33° C | 63% | 1019.4 hPa | 0 mm | - | 614 W/m² | - |
| 1777365045 | 11.11° C | 66% | 1019.3 hPa | 0 mm | - | 384 W/m² | - |
| 1777360244 | 9.44° C | 69% | 1019.3 hPa | 0 mm | - | 278 W/m² | - |
| 1777350645 | 7.78° C | 69% | 1018.9 hPa | 0 mm | - | 6 W/m² | - |
| 1777350046 | 7.78° C | 68% | 1018.8 hPa | 0 mm | - | 2 W/m² | - |
| 1777345243 | 8.89° C | 63% | 1019.2 hPa | 0 mm | - | 0 W/m² | - |
* Rain latest hour (hover to see other rain measurements)
** Current wind speed in m/s (hover to see current wind gust speed)